createdAt,value
2018-12-25T00:00:29.966Z,6.60
2018-12-25T00:01:29.954Z,6.10
2018-12-25T00:02:29.957Z,6.50
2018-12-25T00:03:29.956Z,6.20
2018-12-25T00:04:29.926Z,6.20
2018-12-25T00:05:29.919Z,6.40
2018-12-25T00:06:29.902Z,6.50
2018-12-25T00:07:29.892Z,6.40
2018-12-25T00:08:29.883Z,6.90
2018-12-25T00:09:29.891Z,6.70
2018-12-25T00:10:29.865Z,6.60
2018-12-25T00:11:29.858Z,6.50
2018-12-25T00:12:29.838Z,5.80
2018-12-25T00:13:29.838Z,7.20
2018-12-25T00:14:29.825Z,6.60
2018-12-25T00:15:29.808Z,6.30
2018-12-25T00:16:29.801Z,6.20
2018-12-25T00:17:29.786Z,6.50
2018-12-25T00:18:29.799Z,6.70
2018-12-25T00:19:29.771Z,6.80
2018-12-25T00:20:29.761Z,6.50
2018-12-25T00:21:29.750Z,6.40
2018-12-25T00:22:29.740Z,6.40
2018-12-25T00:23:29.731Z,6.20
2018-12-25T00:24:29.724Z,6.10
2018-12-25T00:25:29.702Z,6.40
2018-12-25T00:26:29.693Z,6.10
2018-12-25T00:27:29.687Z,6.30
2018-12-25T00:28:29.677Z,6.10
2018-12-25T00:29:29.676Z,6.10
2018-12-25T00:30:29.655Z,6.40
2018-12-25T00:31:29.639Z,6.40
2018-12-25T00:32:29.636Z,6.10
2018-12-25T00:33:29.625Z,5.80
2018-12-25T00:34:29.621Z,5.70
2018-12-25T00:35:29.598Z,6.30
2018-12-25T00:36:29.625Z,5.80
2018-12-25T00:37:29.577Z,5.80
2018-12-25T00:38:29.574Z,5.70
2018-12-25T00:39:29.557Z,5.90
2018-12-25T00:40:29.549Z,6.00
2018-12-25T00:41:29.542Z,6.50
2018-12-25T00:42:29.552Z,6.00
2018-12-25T00:43:29.519Z,5.70
2018-12-25T00:44:29.504Z,6.40
2018-12-25T00:45:29.505Z,6.10
2018-12-25T00:46:29.487Z,6.40
2018-12-25T00:47:29.472Z,6.20
2018-12-25T00:48:29.467Z,6.10
2018-12-25T00:49:29.453Z,6.20
2018-12-25T00:50:29.453Z,6.50
2018-12-25T00:51:29.433Z,6.20
2018-12-25T00:52:29.427Z,6.30
2018-12-25T00:53:29.417Z,6.30
2018-12-25T00:54:29.404Z,6.40
2018-12-25T00:55:29.395Z,6.60
2018-12-25T00:56:29.393Z,6.60
2018-12-25T00:57:29.367Z,6.80
2018-12-25T00:58:29.362Z,6.80
2018-12-25T00:59:29.348Z,6.20
2018-12-25T01:00:29.342Z,6.10
2018-12-25T01:01:29.340Z,6.10
2018-12-25T01:02:29.317Z,6.20
2018-12-25T01:03:29.312Z,6.60
2018-12-25T01:04:29.298Z,6.80
2018-12-25T01:05:29.291Z,6.30
2018-12-25T01:06:29.313Z,6.40
2018-12-25T01:07:29.262Z,6.60
2018-12-25T01:08:29.258Z,6.90
2018-12-25T01:09:29.247Z,6.50
2018-12-25T01:10:29.238Z,7.10
2018-12-25T01:11:29.230Z,7.10
2018-12-25T01:12:29.220Z,6.60
2018-12-25T01:13:29.202Z,6.50
2018-12-25T01:14:29.193Z,6.80
2018-12-25T01:15:29.185Z,7.10
2018-12-25T01:16:29.177Z,6.80
2018-12-25T01:17:29.172Z,7.20
2018-12-25T01:18:29.155Z,6.50
2018-12-25T01:19:29.138Z,6.60
2018-12-25T01:20:29.132Z,7.40
2018-12-25T01:21:29.151Z,6.90
2018-12-25T01:22:29.111Z,6.40
2018-12-25T01:23:29.105Z,5.60
2018-12-25T01:24:29.086Z,6.50
2018-12-25T01:25:29.090Z,6.50
2018-12-25T01:26:29.063Z,6.20
2018-12-25T01:27:29.091Z,6.60
2018-12-25T01:28:29.049Z,6.40
2018-12-25T01:29:29.033Z,7.00
2018-12-25T01:30:29.027Z,6.80
2018-12-25T01:31:29.035Z,6.40
2018-12-25T01:32:29.001Z,6.40
2018-12-25T01:33:28.997Z,6.50
2018-12-25T01:34:28.987Z,6.30
2018-12-25T01:35:28.980Z,6.90
2018-12-25T01:36:28.965Z,6.70
2018-12-25T01:37:28.955Z,6.90
2018-12-25T01:38:28.969Z,7.00
2018-12-25T01:39:28.930Z,7.30
2018-12-25T01:40:28.924Z,7.00
2018-12-25T01:41:28.912Z,7.50
2018-12-25T01:42:28.898Z,7.60
2018-12-25T01:43:28.891Z,7.00
2018-12-25T01:44:28.897Z,7.40
2018-12-25T01:45:28.872Z,7.60
2018-12-25T01:46:28.863Z,7.90
2018-12-25T01:47:28.852Z,6.90
2018-12-25T01:48:28.833Z,7.50
2018-12-25T01:49:31.914Z,7.60
2018-12-25T01:50:28.827Z,7.80
2018-12-25T01:51:28.807Z,8.40
2018-12-25T01:52:28.799Z,8.40
2018-12-25T01:53:28.785Z,8.00
2018-12-25T01:54:28.779Z,7.80
2018-12-25T01:55:28.773Z,7.60
2018-12-25T01:56:28.756Z,8.30
2018-12-25T01:57:28.738Z,8.00
2018-12-25T01:58:28.736Z,8.40
2018-12-25T01:59:28.752Z,7.90
2018-12-25T02:00:28.707Z,7.60
2018-12-25T02:01:28.701Z,7.20
2018-12-25T02:02:28.691Z,7.90
2018-12-25T02:03:28.676Z,8.00
2018-12-25T02:04:28.672Z,7.30
2018-12-25T02:05:28.665Z,7.80
2018-12-25T02:06:28.649Z,7.70
2018-12-25T02:07:28.639Z,7.40
2018-12-25T02:08:28.628Z,7.50
2018-12-25T02:09:28.614Z,7.70
2018-12-25T02:10:28.613Z,8.00
2018-12-25T02:11:28.599Z,7.60
2018-12-25T02:12:28.586Z,7.60
2018-12-25T02:13:28.574Z,6.90
2018-12-25T02:14:28.568Z,7.90
2018-12-25T02:15:28.564Z,7.90
2018-12-25T02:16:28.539Z,7.80
2018-12-25T02:17:28.536Z,7.40
2018-12-25T02:18:28.519Z,7.70
2018-12-25T02:19:28.511Z,7.50
2018-12-25T02:20:28.528Z,7.40
2018-12-25T02:21:28.492Z,7.10
2018-12-25T02:22:28.477Z,6.90
2018-12-25T02:23:28.478Z,7.00
2018-12-25T02:24:28.455Z,6.90
2018-12-25T02:25:28.446Z,7.10
2018-12-25T02:26:28.448Z,6.80
2018-12-25T02:27:28.429Z,7.20
2018-12-25T02:28:28.422Z,7.00
2018-12-25T02:29:28.404Z,6.50
2018-12-25T02:30:28.414Z,6.70
2018-12-25T02:31:28.395Z,6.30
2018-12-25T02:32:28.378Z,6.40
2018-12-25T02:33:28.368Z,6.40
2018-12-25T02:34:28.360Z,6.40
2018-12-25T02:35:28.347Z,6.10
2018-12-25T02:36:28.349Z,5.80
2018-12-25T02:37:28.323Z,6.40
2018-12-25T02:38:28.321Z,6.40
2018-12-25T02:39:28.299Z,6.20
2018-12-25T02:40:28.295Z,6.80
2018-12-25T02:41:28.281Z,6.60
2018-12-25T02:42:28.270Z,6.60
2018-12-25T02:43:28.286Z,6.70
2018-12-25T02:44:28.245Z,6.20
2018-12-25T02:45:28.236Z,7.00
2018-12-25T02:46:28.233Z,6.30
2018-12-25T02:47:28.216Z,7.10
2018-12-25T02:48:28.205Z,6.90
2018-12-25T02:49:28.206Z,6.50
2018-12-25T02:50:28.188Z,7.60
2018-12-25T02:51:28.187Z,6.70
2018-12-25T02:52:28.172Z,7.10
2018-12-25T02:53:28.150Z,6.40
2018-12-25T02:54:28.172Z,6.60
2018-12-25T02:55:28.138Z,6.60
2018-12-25T02:56:28.123Z,6.90
2018-12-25T02:57:28.109Z,6.40
2018-12-25T02:58:28.100Z,7.10
2018-12-25T02:59:28.093Z,6.90
2018-12-25T03:00:28.089Z,6.90
2018-12-25T03:01:28.068Z,7.10
2018-12-25T03:02:28.062Z,6.70
2018-12-25T03:03:28.047Z,6.60
2018-12-25T03:04:28.038Z,6.60
2018-12-25T03:05:28.041Z,6.90
2018-12-25T03:06:28.021Z,6.80
2018-12-25T03:07:28.005Z,6.70
2018-12-25T03:08:27.994Z,7.00
2018-12-25T03:09:27.987Z,6.80
2018-12-25T03:10:28.017Z,6.70
2018-12-25T03:11:27.966Z,6.40
2018-12-25T03:12:27.961Z,6.30
2018-12-25T03:13:27.941Z,6.30
2018-12-25T03:14:27.942Z,6.20
2018-12-25T03:15:27.925Z,5.90
2018-12-25T03:16:27.923Z,5.60
2018-12-25T03:17:27.900Z,5.60
2018-12-25T03:18:27.895Z,5.80
2018-12-25T03:19:27.881Z,5.50
2018-12-25T03:20:27.869Z,5.40
2018-12-25T03:21:27.893Z,5.60
2018-12-25T03:22:27.847Z,5.30
2018-12-25T03:23:27.840Z,5.40
2018-12-25T03:24:27.827Z,5.70
2018-12-25T03:25:27.821Z,5.40
2018-12-25T03:26:27.817Z,5.70
2018-12-25T03:27:27.804Z,5.70
2018-12-25T03:28:27.785Z,5.70
2018-12-25T03:29:27.772Z,5.60
2018-12-25T03:30:27.777Z,5.40
2018-12-25T03:31:27.753Z,5.70
2018-12-25T03:32:27.757Z,5.50
2018-12-25T03:33:27.731Z,5.60
2018-12-25T03:34:27.725Z,6.90
2018-12-25T03:35:27.718Z,5.70
2018-12-25T03:36:27.709Z,5.80
2018-12-25T03:37:27.699Z,6.10
2018-12-25T03:38:27.677Z,5.80
2018-12-25T03:39:27.677Z,5.80
2018-12-25T03:40:27.655Z,5.60
2018-12-25T03:41:27.647Z,6.20
2018-12-25T03:42:27.637Z,6.20
2018-12-25T03:43:27.643Z,5.90
2018-12-25T03:44:27.645Z,6.00
2018-12-25T03:45:27.609Z,5.90
2018-12-25T03:46:27.595Z,6.30
2018-12-25T03:47:27.586Z,6.00
2018-12-25T03:48:27.575Z,5.90
2018-12-25T03:49:27.566Z,5.30
2018-12-25T03:50:27.561Z,6.10
2018-12-25T03:51:27.545Z,5.90
2018-12-25T03:52:27.536Z,5.80
2018-12-25T03:53:27.531Z,5.80
2018-12-25T03:54:27.519Z,6.40
2018-12-25T03:55:27.510Z,6.40
2018-12-25T03:56:27.492Z,5.60
2018-12-25T03:57:27.521Z,5.50
2018-12-25T03:58:27.472Z,5.50
2018-12-25T03:59:27.461Z,5.20
2018-12-25T04:00:27.450Z,5.70
2018-12-25T04:01:27.438Z,5.90
2018-12-25T04:02:27.428Z,5.90
2018-12-25T04:03:27.423Z,5.70
2018-12-25T04:04:27.405Z,5.60
2018-12-25T04:05:27.404Z,5.30
2018-12-25T04:06:27.383Z,5.60
2018-12-25T04:07:27.371Z,5.30
2018-12-25T04:08:27.360Z,5.70
2018-12-25T04:09:27.352Z,5.30
2018-12-25T04:10:27.369Z,5.80
2018-12-25T04:11:27.331Z,4.80
2018-12-25T04:12:27.324Z,6.10
2018-12-25T04:13:27.314Z,5.30
2018-12-25T04:14:27.298Z,5.00
2018-12-25T04:15:27.287Z,4.90
2018-12-25T04:16:27.376Z,5.50
2018-12-25T04:17:27.271Z,5.10
2018-12-25T04:18:27.257Z,5.00
2018-12-25T04:19:27.251Z,5.20
2018-12-25T04:20:27.241Z,4.70
2018-12-25T04:21:27.262Z,4.90
2018-12-25T04:22:27.217Z,5.10
2018-12-25T04:23:27.202Z,4.90
2018-12-25T04:24:27.191Z,5.00
2018-12-25T04:25:27.187Z,5.40
2018-12-25T04:26:27.179Z,5.10
2018-12-25T04:27:27.181Z,4.70
2018-12-25T04:28:27.154Z,4.80
2018-12-25T04:29:27.144Z,5.30
2018-12-25T04:30:27.134Z,5.00
2018-12-25T04:31:27.213Z,5.20
2018-12-25T04:32:27.125Z,5.20
2018-12-25T04:33:27.102Z,4.90
2018-12-25T04:34:27.088Z,4.90
2018-12-25T04:35:27.080Z,4.80
2018-12-25T04:36:27.073Z,4.70
2018-12-25T04:37:27.093Z,4.70
2018-12-25T04:38:27.050Z,4.80
2018-12-25T04:39:27.040Z,4.30
2018-12-25T04:40:27.030Z,4.40
2018-12-25T04:41:27.013Z,4.80
2018-12-25T04:42:27.011Z,4.30
2018-12-25T04:43:27.002Z,4.20
2018-12-25T04:44:26.987Z,4.30
2018-12-25T04:45:26.976Z,4.10
2018-12-25T04:46:26.961Z,4.40
2018-12-25T04:47:26.956Z,4.40
2018-12-25T04:48:26.956Z,4.00
2018-12-25T04:49:26.935Z,4.20
2018-12-25T04:50:29.519Z,3.80
2018-12-25T04:51:26.916Z,3.50
2018-12-25T04:52:26.966Z,3.80
2018-12-25T04:53:26.901Z,4.00
2018-12-25T04:54:26.884Z,3.50
2018-12-25T04:55:26.867Z,4.20
2018-12-25T04:56:26.857Z,4.40
2018-12-25T04:57:26.870Z,3.70
2018-12-25T04:58:26.837Z,3.70
2018-12-25T04:59:26.830Z,3.80
2018-12-25T05:00:26.812Z,3.60
2018-12-25T05:01:26.805Z,3.70
2018-12-25T05:02:26.792Z,3.80
2018-12-25T05:03:26.796Z,3.30
2018-12-25T05:04:26.809Z,3.70
2018-12-25T05:05:26.767Z,3.80
2018-12-25T05:06:26.754Z,3.60
2018-12-25T05:07:26.744Z,3.70
2018-12-25T05:08:26.731Z,3.30
2018-12-25T05:09:26.724Z,3.20
2018-12-25T05:10:26.722Z,3.30
2018-12-25T05:11:26.706Z,3.20
2018-12-25T05:12:26.689Z,2.60
2018-12-25T05:13:26.676Z,3.10
2018-12-25T05:14:26.690Z,3.30
2018-12-25T05:15:26.660Z,2.90
2018-12-25T05:16:27.440Z,2.90
2018-12-25T05:17:26.635Z,3.10
2018-12-25T05:18:26.623Z,2.90
2018-12-25T05:19:26.613Z,2.80
2018-12-25T05:20:26.618Z,2.80
2018-12-25T05:21:26.597Z,2.60
2018-12-25T05:22:26.588Z,2.70
2018-12-25T05:23:26.572Z,3.10
2018-12-25T05:24:26.561Z,2.50
2018-12-25T05:25:26.566Z,3.10
2018-12-25T05:26:26.562Z,2.60
2018-12-25T05:27:26.534Z,2.70
2018-12-25T05:28:26.528Z,3.00
2018-12-25T05:29:26.517Z,2.40
2018-12-25T05:30:26.508Z,2.50
2018-12-25T05:31:26.492Z,2.30
2018-12-25T05:32:26.522Z,2.20
2018-12-25T05:33:26.474Z,1.90
2018-12-25T05:34:26.467Z,2.30
2018-12-25T05:35:26.449Z,2.40
2018-12-25T05:36:26.435Z,2.20
2018-12-25T05:37:26.425Z,2.30
2018-12-25T05:38:26.421Z,2.20
2018-12-25T05:39:26.411Z,2.10
2018-12-25T05:40:26.403Z,2.20
2018-12-25T05:41:26.388Z,2.10
2018-12-25T05:42:26.373Z,2.40
2018-12-25T05:43:26.400Z,2.10
2018-12-25T05:44:26.356Z,2.00
2018-12-25T05:45:26.347Z,2.30
2018-12-25T05:46:26.331Z,2.00
2018-12-25T05:47:26.320Z,2.10
2018-12-25T05:48:26.318Z,2.10
2018-12-25T05:49:26.318Z,2.30
2018-12-25T05:50:26.288Z,2.60
2018-12-25T05:51:26.283Z,1.90
2018-12-25T05:52:26.268Z,1.90
2018-12-25T05:53:26.265Z,2.10
2018-12-25T05:54:26.280Z,2.30
2018-12-25T05:55:26.238Z,2.20
2018-12-25T05:56:26.225Z,2.00
2018-12-25T05:57:26.221Z,2.20
2018-12-25T05:58:26.216Z,2.20
2018-12-25T05:59:26.200Z,2.00
2018-12-25T06:00:26.198Z,2.20
2018-12-25T06:01:26.182Z,2.20
2018-12-25T06:02:26.169Z,2.40
2018-12-25T06:03:26.158Z,1.90
2018-12-25T06:04:26.143Z,2.10
2018-12-25T06:05:26.141Z,2.10
2018-12-25T06:06:26.121Z,2.20
2018-12-25T06:07:26.115Z,2.70
2018-12-25T06:08:26.100Z,1.90
2018-12-25T06:09:26.107Z,2.00
2018-12-25T06:10:26.080Z,2.00
2018-12-25T06:11:26.083Z,2.20
2018-12-25T06:12:26.065Z,2.00
2018-12-25T06:13:26.053Z,2.20
2018-12-25T06:14:26.038Z,2.20
2018-12-25T06:15:26.065Z,2.20
2018-12-25T06:16:26.019Z,2.00
2018-12-25T06:17:26.005Z,2.40
2018-12-25T06:18:25.997Z,2.40
2018-12-25T06:19:25.991Z,1.90
2018-12-25T06:20:25.974Z,1.80
2018-12-25T06:21:25.975Z,2.10
2018-12-25T06:22:25.980Z,2.40
2018-12-25T06:23:25.944Z,2.00
2018-12-25T06:24:25.937Z,1.90
2018-12-25T06:25:25.922Z,1.70
2018-12-25T06:26:25.916Z,2.00
2018-12-25T06:27:25.907Z,2.20
2018-12-25T06:28:25.904Z,1.90
2018-12-25T06:29:25.886Z,2.10
2018-12-25T06:30:25.870Z,2.10
2018-12-25T06:31:25.863Z,2.00
2018-12-25T06:32:25.849Z,2.20
2018-12-25T06:33:25.859Z,1.90
2018-12-25T06:34:25.837Z,1.70
2018-12-25T06:35:25.822Z,2.00
2018-12-25T06:36:25.814Z,2.00
2018-12-25T06:37:25.795Z,1.80
2018-12-25T06:38:25.786Z,1.80
2018-12-25T06:39:25.815Z,2.10
2018-12-25T06:40:25.764Z,2.00
2018-12-25T06:41:25.755Z,1.70
2018-12-25T06:42:25.743Z,2.00
2018-12-25T06:43:25.740Z,1.70
2018-12-25T06:44:25.726Z,1.80
2018-12-25T06:45:25.721Z,2.00
2018-12-25T06:46:25.702Z,2.00
2018-12-25T06:47:25.691Z,1.80
2018-12-25T06:48:25.681Z,1.60
2018-12-25T06:49:25.672Z,2.00
2018-12-25T06:50:25.673Z,1.80
2018-12-25T06:51:25.657Z,1.90
2018-12-25T06:52:25.649Z,2.30
2018-12-25T06:53:25.633Z,1.80
2018-12-25T06:54:25.617Z,1.70
2018-12-25T06:55:25.624Z,2.30
2018-12-25T06:56:25.596Z,1.80
2018-12-25T06:57:25.595Z,1.80
2018-12-25T06:58:25.581Z,1.80
2018-12-25T06:59:25.575Z,1.80
2018-12-25T07:00:25.564Z,1.90
2018-12-25T07:01:25.547Z,1.90
2018-12-25T07:02:25.539Z,1.60
2018-12-25T07:03:25.532Z,2.00
2018-12-25T07:04:25.523Z,1.80
2018-12-25T07:05:25.520Z,2.00
2018-12-25T07:06:25.530Z,2.00
2018-12-25T07:07:25.481Z,1.60
2018-12-25T07:08:25.478Z,1.80
2018-12-25T07:09:25.461Z,2.00
2018-12-25T07:10:25.455Z,2.00
2018-12-25T07:11:25.470Z,2.20
2018-12-25T07:12:25.429Z,1.90
2018-12-25T07:13:25.552Z,1.90
2018-12-25T07:14:25.410Z,2.30
2018-12-25T07:15:32.759Z,2.30
2018-12-25T07:16:26.392Z,2.10
2018-12-25T07:17:25.383Z,2.00
2018-12-25T07:18:25.377Z,2.10
2018-12-25T07:19:25.355Z,1.90
2018-12-25T07:20:25.348Z,2.00
2018-12-25T07:21:25.336Z,1.90
2018-12-25T07:22:25.362Z,1.90
2018-12-25T07:23:25.310Z,1.90
2018-12-25T07:24:25.304Z,1.90
2018-12-25T07:25:25.294Z,1.50
2018-12-25T07:26:25.283Z,2.20
2018-12-25T07:27:25.281Z,2.30
2018-12-25T07:28:25.411Z,2.20
2018-12-25T07:29:25.251Z,1.80
2018-12-25T07:30:25.235Z,2.10
2018-12-25T07:31:25.229Z,2.00
2018-12-25T07:32:25.215Z,1.90
2018-12-25T07:33:25.207Z,2.20
2018-12-25T07:34:25.200Z,2.10
2018-12-25T07:35:25.199Z,1.90
2018-12-25T07:36:25.177Z,2.10
2018-12-25T07:37:25.165Z,2.30
2018-12-25T07:38:25.150Z,2.50
2018-12-25T07:39:25.175Z,2.50
2018-12-25T07:40:25.131Z,2.20
2018-12-25T07:41:25.124Z,2.50
2018-12-25T07:42:25.114Z,2.60
2018-12-25T07:43:25.104Z,2.10
2018-12-25T07:44:25.091Z,2.40
2018-12-25T07:45:25.091Z,2.80
2018-12-25T07:46:25.071Z,2.70
2018-12-25T07:47:25.057Z,2.20
2018-12-25T07:48:25.050Z,2.70
2018-12-25T07:49:25.040Z,2.60
2018-12-25T07:50:25.032Z,2.60
2018-12-25T07:51:25.017Z,2.60
2018-12-25T07:52:26.843Z,2.70
2018-12-25T07:53:24.996Z,2.40
2018-12-25T07:54:25.015Z,2.90
2018-12-25T07:55:24.971Z,2.70
2018-12-25T07:56:24.978Z,2.60
2018-12-25T07:57:24.951Z,2.90
2018-12-25T07:58:24.939Z,2.70
2018-12-25T07:59:24.929Z,2.40
2018-12-25T08:00:24.919Z,3.00
2018-12-25T08:01:24.916Z,3.00
2018-12-25T08:02:24.901Z,2.60
2018-12-25T08:03:24.897Z,2.70
2018-12-25T08:04:24.874Z,3.30
2018-12-25T08:05:24.865Z,2.80
2018-12-25T08:06:24.863Z,2.70
2018-12-25T08:07:24.847Z,3.10
2018-12-25T08:08:24.840Z,2.70
2018-12-25T08:09:24.951Z,2.60
2018-12-25T08:10:24.817Z,3.00
2018-12-25T08:11:24.819Z,2.70
2018-12-25T08:12:24.791Z,3.10
2018-12-25T08:13:24.785Z,2.80
2018-12-25T08:14:24.774Z,2.80
2018-12-25T08:15:24.763Z,3.30
2018-12-25T08:16:24.751Z,3.50
2018-12-25T08:17:24.752Z,3.60
2018-12-25T08:18:24.758Z,3.30
2018-12-25T08:19:24.751Z,3.30
2018-12-25T08:20:24.809Z,2.90
2018-12-25T08:21:29.238Z,3.20
2018-12-25T08:22:24.705Z,2.90
2018-12-25T08:23:24.675Z,2.90
2018-12-25T08:24:24.674Z,3.20
2018-12-25T08:25:24.660Z,3.30
2018-12-25T08:26:24.652Z,3.10
2018-12-25T08:27:24.647Z,2.90
2018-12-25T08:28:24.634Z,3.10
2018-12-25T08:29:24.613Z,2.90
2018-12-25T08:30:24.607Z,3.00
2018-12-25T08:31:24.600Z,2.80
2018-12-25T08:32:24.584Z,3.20
2018-12-25T08:33:24.578Z,2.80
2018-12-25T08:34:24.593Z,2.90
2018-12-25T08:35:24.549Z,3.20
2018-12-25T08:36:24.544Z,2.70
2018-12-25T08:37:24.530Z,3.50
2018-12-25T08:38:24.533Z,2.80
2018-12-25T08:39:24.515Z,3.10
2018-12-25T08:40:24.500Z,3.10
2018-12-25T08:41:24.494Z,2.70
2018-12-25T08:42:24.472Z,2.90
2018-12-25T08:43:24.462Z,3.00
2018-12-25T08:44:24.462Z,3.00
2018-12-25T08:45:24.445Z,2.80
2018-12-25T08:46:24.437Z,2.50
2018-12-25T08:47:24.418Z,2.90
2018-12-25T08:48:24.414Z,2.60
2018-12-25T08:49:24.398Z,3.00
2018-12-25T08:50:24.401Z,2.80
2018-12-25T08:51:24.388Z,3.00
2018-12-25T08:52:24.380Z,3.00
2018-12-25T08:53:24.361Z,2.90
2018-12-25T08:54:24.346Z,3.00
2018-12-25T08:55:24.334Z,2.90
2018-12-25T08:56:24.335Z,2.90
2018-12-25T08:57:24.332Z,2.40
2018-12-25T08:58:24.333Z,2.70
2018-12-25T08:59:24.292Z,2.70
2018-12-25T09:00:24.285Z,2.90
2018-12-25T09:01:24.270Z,2.60
2018-12-25T09:02:24.259Z,3.10
2018-12-25T09:03:24.257Z,2.60
2018-12-25T09:04:24.261Z,2.60
2018-12-25T09:05:24.236Z,3.00
2018-12-25T09:06:24.222Z,2.50
2018-12-25T09:07:24.211Z,2.50
2018-12-25T09:08:24.200Z,3.60
2018-12-25T09:09:24.191Z,2.70
2018-12-25T09:10:24.210Z,2.50
2018-12-25T09:11:24.164Z,2.50
2018-12-25T09:12:24.159Z,2.40
2018-12-25T09:13:24.142Z,2.80
2018-12-25T09:14:24.141Z,2.40
2018-12-25T09:15:24.123Z,2.40
2018-12-25T09:16:24.125Z,2.60
2018-12-25T09:17:24.104Z,2.60
2018-12-25T09:18:24.094Z,2.80
2018-12-25T09:19:24.084Z,2.70
2018-12-25T09:20:24.077Z,2.30
2018-12-25T09:21:24.067Z,2.50
2018-12-25T09:22:24.061Z,2.50
2018-12-25T09:23:24.097Z,3.30
2018-12-25T09:24:24.026Z,2.80
2018-12-25T09:25:24.025Z,2.80
2018-12-25T09:26:24.009Z,2.50
2018-12-25T09:27:24.022Z,2.50
2018-12-25T09:28:23.993Z,2.10
2018-12-25T09:29:23.993Z,2.40
2018-12-25T09:30:24.044Z,2.50
2018-12-25T09:31:23.964Z,2.40
2018-12-25T09:32:23.962Z,2.70
2018-12-25T09:33:23.944Z,2.60
2018-12-25T09:34:23.921Z,2.30
2018-12-25T09:35:23.910Z,2.30
2018-12-25T09:36:23.908Z,2.40
2018-12-25T09:37:23.910Z,2.30
2018-12-25T09:38:23.908Z,3.60
2018-12-25T09:39:23.868Z,3.70
2018-12-25T09:40:23.858Z,7.10
2018-12-25T09:41:23.863Z,13.10
2018-12-25T09:42:23.846Z,42.30
2018-12-25T09:43:23.838Z,21.90
2018-12-25T09:44:23.838Z,4.60
2018-12-25T09:45:23.813Z,9.90
2018-12-25T09:46:23.806Z,6.10
2018-12-25T09:47:23.801Z,5.00
2018-12-25T09:48:23.784Z,4.90
2018-12-25T09:49:23.808Z,2.60
2018-12-25T09:50:23.753Z,3.60
2018-12-25T09:51:23.744Z,2.70
2018-12-25T09:52:23.733Z,2.00
2018-12-25T09:53:23.742Z,2.00
2018-12-25T09:54:23.712Z,2.00
2018-12-25T09:55:23.738Z,2.20
2018-12-25T09:56:23.706Z,2.10
2018-12-25T09:57:23.686Z,2.20
2018-12-25T09:58:23.675Z,2.20
2018-12-25T09:59:23.717Z,2.10
2018-12-25T10:00:23.676Z,2.20
2018-12-25T10:01:23.645Z,2.20
2018-12-25T10:02:23.660Z,2.20
2018-12-25T10:03:23.654Z,2.10
2018-12-25T10:04:23.614Z,2.20
2018-12-25T10:05:23.621Z,2.00
2018-12-25T10:06:23.589Z,2.10
2018-12-25T10:07:23.574Z,2.30
2018-12-25T10:08:23.566Z,2.10
2018-12-25T10:09:23.569Z,2.20
2018-12-25T10:10:23.542Z,2.20
2018-12-25T10:11:23.800Z,2.10
2018-12-25T10:12:23.530Z,2.40
2018-12-25T10:13:23.514Z,2.00
2018-12-25T10:14:23.510Z,2.20
2018-12-25T10:15:23.495Z,2.20
2018-12-25T10:16:23.489Z,2.20
2018-12-25T10:17:23.516Z,2.20
2018-12-25T10:18:23.461Z,2.30
2018-12-25T10:19:23.498Z,2.00
2018-12-25T10:20:23.462Z,2.30
2018-12-25T10:21:23.427Z,2.20
2018-12-25T10:22:23.430Z,2.00
2018-12-25T10:23:23.416Z,2.10
2018-12-25T10:24:23.402Z,2.30
2018-12-25T10:25:23.445Z,2.10
2018-12-25T10:26:23.386Z,2.40
2018-12-25T10:27:23.406Z,2.30
2018-12-25T10:28:23.360Z,2.40
2018-12-25T10:29:23.359Z,2.10
2018-12-25T10:30:23.347Z,2.10
2018-12-25T10:31:23.383Z,2.20
2018-12-25T10:32:23.317Z,2.40
2018-12-25T10:33:23.302Z,2.50
2018-12-25T10:34:23.289Z,2.20
2018-12-25T10:35:23.279Z,2.40
2018-12-25T10:36:23.270Z,2.20
2018-12-25T10:37:23.266Z,2.40
2018-12-25T10:38:23.250Z,2.40
2018-12-25T10:39:23.244Z,2.50
2018-12-25T10:40:23.225Z,2.20
2018-12-25T10:41:23.226Z,1.80
2018-12-25T10:42:23.261Z,2.00
2018-12-25T10:43:23.290Z,2.20
2018-12-25T10:44:23.250Z,2.00
2018-12-25T10:45:23.177Z,2.10
2018-12-25T10:46:23.224Z,2.10
2018-12-25T10:47:23.162Z,2.30
2018-12-25T10:48:23.140Z,2.30
2018-12-25T10:49:23.150Z,2.70
2018-12-25T10:50:23.122Z,2.60
2018-12-25T10:51:23.108Z,2.00
2018-12-25T10:52:23.104Z,2.50
2018-12-25T10:53:23.184Z,2.20
2018-12-25T10:54:23.108Z,2.30
2018-12-25T10:55:23.085Z,2.20
2018-12-25T10:56:23.053Z,2.20
2018-12-25T10:57:23.053Z,2.60
2018-12-25T10:58:23.074Z,2.10
2018-12-25T10:59:23.050Z,2.00
2018-12-25T11:00:23.026Z,2.00
2018-12-25T11:01:23.063Z,2.30
2018-12-25T11:02:22.993Z,2.30
2018-12-25T11:03:22.979Z,2.50
2018-12-25T11:04:23.020Z,2.00
2018-12-25T11:05:22.966Z,2.00
2018-12-25T11:06:22.954Z,2.20
2018-12-25T11:07:22.959Z,2.10
2018-12-25T11:08:22.996Z,1.80
2018-12-25T11:09:22.920Z,1.80
2018-12-25T11:10:22.904Z,1.90
2018-12-25T11:11:22.932Z,2.10
2018-12-25T11:12:22.891Z,1.90
2018-12-25T11:13:22.879Z,2.70
2018-12-25T11:14:22.862Z,2.30
2018-12-25T11:15:22.861Z,2.80
2018-12-25T11:16:22.852Z,2.40
2018-12-25T11:17:22.855Z,2.10
2018-12-25T11:18:22.820Z,1.90
2018-12-25T11:19:22.817Z,1.90
2018-12-25T11:20:22.805Z,1.80
2018-12-25T11:21:22.833Z,1.80
2018-12-25T11:22:22.834Z,2.20
2018-12-25T11:23:22.772Z,2.10
2018-12-25T11:24:22.763Z,2.10
2018-12-25T11:25:22.747Z,1.70
2018-12-25T11:26:22.781Z,1.70
2018-12-25T11:27:22.728Z,1.80
2018-12-25T11:28:22.751Z,2.00
2018-12-25T11:29:22.704Z,1.60
2018-12-25T11:30:22.694Z,1.70
2018-12-25T11:31:30.454Z,1.60
2018-12-25T11:32:22.669Z,1.70
2018-12-25T11:33:22.664Z,1.50
2018-12-25T11:34:22.657Z,1.80
2018-12-25T11:35:22.639Z,1.70
2018-12-25T11:36:22.627Z,1.70
2018-12-25T11:37:22.616Z,1.80
2018-12-25T11:38:22.611Z,1.50
2018-12-25T11:39:22.607Z,1.50
2018-12-25T11:40:22.585Z,1.80
2018-12-25T11:41:22.573Z,1.60
2018-12-25T11:42:22.571Z,1.80
2018-12-25T11:43:22.553Z,1.80
2018-12-25T11:44:22.577Z,1.70
2018-12-25T11:45:22.535Z,1.80
2018-12-25T11:46:22.524Z,1.60
2018-12-25T11:47:22.514Z,1.80
2018-12-25T11:48:22.504Z,1.80
2018-12-25T11:49:22.489Z,1.90
2018-12-25T11:50:22.517Z,1.60
2018-12-25T11:51:22.551Z,1.90
2018-12-25T11:52:28.364Z,1.60
2018-12-25T11:53:23.448Z,2.00
2018-12-25T11:54:22.436Z,1.80
2018-12-25T11:55:22.424Z,1.50
2018-12-25T11:56:22.429Z,1.60
2018-12-25T11:57:22.407Z,1.80
2018-12-25T11:58:22.399Z,1.80
2018-12-25T11:59:22.385Z,2.00
2018-12-25T12:00:22.386Z,1.90
2018-12-25T12:01:22.360Z,1.80
2018-12-25T12:02:22.355Z,1.90
2018-12-25T12:03:22.343Z,2.20
2018-12-25T12:04:22.333Z,1.80
2018-12-25T12:05:22.315Z,1.80
2018-12-25T12:06:22.320Z,1.90
2018-12-25T12:07:22.300Z,1.80
2018-12-25T12:08:22.282Z,1.90
2018-12-25T12:09:22.277Z,1.60
2018-12-25T12:10:22.280Z,1.70
2018-12-25T12:11:22.250Z,2.40
2018-12-25T12:12:22.240Z,1.80
2018-12-25T12:13:22.237Z,1.90
2018-12-25T12:14:22.223Z,2.00
2018-12-25T12:15:22.224Z,2.90
2018-12-25T12:16:22.197Z,2.50
2018-12-25T12:17:22.304Z,2.20
2018-12-25T12:18:22.177Z,2.10
2018-12-25T12:19:22.170Z,2.00
2018-12-25T12:20:22.190Z,2.00
2018-12-25T12:21:22.146Z,2.20
2018-12-25T12:22:22.133Z,2.10
2018-12-25T12:23:22.133Z,1.90
2018-12-25T12:24:22.132Z,2.00
2018-12-25T12:25:22.113Z,1.80
2018-12-25T12:26:22.113Z,1.90
2018-12-25T12:27:22.114Z,2.10
2018-12-25T12:28:22.073Z,2.40
2018-12-25T12:29:22.064Z,2.20
2018-12-25T12:30:22.048Z,2.30
2018-12-25T12:31:22.041Z,1.90
2018-12-25T12:32:22.031Z,2.50
2018-12-25T12:33:22.028Z,2.20
2018-12-25T12:34:22.009Z,2.40
2018-12-25T12:35:21.995Z,2.20
2018-12-25T12:36:21.992Z,1.90
2018-12-25T12:37:21.983Z,2.40
2018-12-25T12:38:21.968Z,2.60
2018-12-25T12:39:21.951Z,2.30
2018-12-25T12:40:21.947Z,2.30
2018-12-25T12:41:21.937Z,2.10
2018-12-25T12:42:21.929Z,2.10
2018-12-25T12:43:21.912Z,1.90
2018-12-25T12:44:21.904Z,2.20
2018-12-25T12:45:21.887Z,2.20
2018-12-25T12:46:21.898Z,2.60
2018-12-25T12:47:21.882Z,2.20
2018-12-25T12:48:21.861Z,2.30
2018-12-25T12:49:21.844Z,2.30
2018-12-25T12:50:21.838Z,2.60
2018-12-25T12:51:21.831Z,2.60
2018-12-25T12:52:21.846Z,2.60
2018-12-25T12:53:21.808Z,2.50
2018-12-25T12:54:21.794Z,2.50
2018-12-25T12:55:21.785Z,2.20
2018-12-25T12:56:21.767Z,2.70
2018-12-25T12:57:21.763Z,2.10
2018-12-25T12:58:21.757Z,2.70
2018-12-25T12:59:21.739Z,2.60
2018-12-25T13:00:21.728Z,2.30
2018-12-25T13:01:21.718Z,2.50
2018-12-25T13:02:21.702Z,2.30
2018-12-25T13:03:21.700Z,2.20
2018-12-25T13:04:21.685Z,2.40
2018-12-25T13:05:21.679Z,2.00
2018-12-25T13:06:21.665Z,1.90
2018-12-25T13:07:21.655Z,1.90
2018-12-25T13:08:21.646Z,1.90
2018-12-25T13:09:21.667Z,1.90
2018-12-25T13:10:21.626Z,2.00
2018-12-25T13:11:21.608Z,1.90
2018-12-25T13:12:21.600Z,2.20
2018-12-25T13:13:21.586Z,2.20
2018-12-25T13:14:21.579Z,2.50
2018-12-25T13:15:21.578Z,2.30
2018-12-25T13:16:21.557Z,2.10
2018-12-25T13:17:21.542Z,2.00
2018-12-25T13:18:21.529Z,2.30